createdAt,value
2023-08-08T04:01:17.240Z,0.60
2023-08-08T06:00:45.411Z,0.55
2023-08-08T06:03:12.656Z,0.50
2023-08-08T06:05:39.896Z,0.43
2023-08-08T06:08:09.125Z,0.40
2023-08-08T06:10:36.035Z,0.50
2023-08-08T06:13:02.743Z,0.60
2023-08-08T06:15:29.513Z,0.60
2023-08-08T06:17:56.216Z,0.80
2023-08-08T06:20:22.997Z,0.80
2023-08-08T06:22:50.145Z,0.80
2023-08-08T06:25:16.896Z,0.70
2023-08-08T06:27:43.650Z,0.90
2023-08-08T06:30:10.521Z,0.65
2023-08-08T06:32:37.189Z,0.70
2023-08-08T06:35:04.088Z,0.70
2023-08-08T06:37:30.795Z,0.70
2023-08-08T06:39:57.502Z,0.70
2023-08-08T06:42:24.129Z,0.70
2023-08-08T06:44:50.720Z,0.70
2023-08-08T06:47:17.288Z,0.68
2023-08-08T06:49:43.879Z,0.60
2023-08-08T06:52:10.511Z,0.70
2023-08-08T06:54:37.101Z,0.60
2023-08-08T06:57:04.026Z,0.55
2023-08-08T06:59:30.637Z,0.80
2023-08-08T07:01:57.929Z,0.75
2023-08-08T07:04:24.729Z,0.77
2023-08-08T07:06:51.274Z,0.75
2023-08-08T07:09:17.833Z,0.70
2023-08-08T07:11:44.477Z,0.70
2023-08-08T07:14:10.969Z,0.75
2023-08-08T07:16:37.473Z,0.90
2023-08-08T07:19:04.039Z,0.60
2023-08-08T07:21:30.621Z,0.80
2023-08-08T07:23:58.384Z,0.50
2023-08-08T07:26:24.897Z,0.60
2023-08-08T07:28:51.402Z,0.65
2023-08-08T07:31:17.984Z,0.60
2023-08-08T07:33:44.496Z,0.70
2023-08-08T07:36:10.962Z,0.52
2023-08-08T07:38:39.086Z,0.50
2023-08-08T07:41:05.637Z,0.60
2023-08-08T07:43:32.645Z,0.65
2023-08-08T07:45:59.227Z,0.60
2023-08-08T07:48:25.813Z,0.70
2023-08-08T07:50:52.300Z,0.60
2023-08-08T07:53:18.828Z,0.70
2023-08-08T07:55:45.374Z,0.80
2023-08-08T07:58:11.951Z,0.60
2023-08-08T08:00:39.564Z,0.70
2023-08-08T08:03:06.276Z,0.82
2023-08-08T08:05:33.391Z,0.70
2023-08-08T08:07:59.867Z,0.52
2023-08-08T08:10:26.355Z,0.70
2023-08-08T08:12:58.901Z,0.60
2023-08-08T08:15:26.458Z,0.60
2023-08-08T08:17:53.065Z,0.68
2023-08-08T08:20:20.230Z,0.73
2023-08-08T08:22:47.037Z,0.60
2023-08-08T08:25:14.634Z,0.73
2023-08-08T08:27:41.162Z,0.60
2023-08-08T08:30:09.369Z,0.70
2023-08-08T08:32:36.124Z,0.60
2023-08-08T08:35:07.231Z,0.73
2023-08-08T08:37:33.844Z,0.63
2023-08-08T08:40:00.586Z,0.70
2023-08-08T08:42:27.576Z,0.70
2023-08-08T08:44:56.082Z,0.50
2023-08-08T08:47:22.592Z,0.50
2023-08-08T08:49:49.139Z,0.60
2023-08-08T08:52:15.663Z,0.60
2023-08-08T08:54:43.481Z,0.50
2023-08-08T08:57:10.581Z,0.50
2023-08-08T08:59:37.100Z,0.88
2023-08-08T09:02:03.720Z,0.70
2023-08-08T09:04:31.729Z,0.68
2023-08-08T09:06:58.234Z,0.50
2023-08-08T09:09:24.710Z,0.50
2023-08-08T09:11:51.838Z,0.60
2023-08-08T09:14:22.677Z,0.55
2023-08-08T09:16:49.556Z,0.70
2023-08-08T09:19:16.432Z,0.68
2023-08-08T09:21:43.020Z,0.47
2023-08-08T09:24:09.654Z,0.52
2023-08-08T09:26:36.163Z,0.63
2023-08-08T09:29:03.747Z,0.50
2023-08-08T09:31:31.026Z,0.60
2023-08-08T09:33:59.057Z,0.43
2023-08-08T09:36:26.612Z,0.60
2023-08-08T09:38:54.276Z,0.60
2023-08-08T09:41:22.108Z,0.50
2023-08-08T09:43:49.367Z,0.52
2023-08-08T09:46:16.941Z,0.70
2023-08-08T09:48:44.168Z,0.50
2023-08-08T09:51:10.761Z,0.70
2023-08-08T09:53:37.278Z,0.80
2023-08-08T09:56:04.675Z,0.70
2023-08-08T09:58:31.364Z,0.70
2023-08-08T10:00:57.846Z,0.70
2023-08-08T10:03:24.387Z,0.70
2023-08-08T10:05:50.956Z,0.65
2023-08-08T10:08:18.573Z,0.60
2023-08-08T10:10:46.639Z,0.50
2023-08-08T10:13:23.094Z,0.50
2023-08-08T10:15:50.122Z,0.60
2023-08-08T10:18:16.662Z,0.68
2023-08-08T10:20:44.315Z,0.50
2023-08-08T10:23:10.780Z,0.60
2023-08-08T10:25:37.848Z,0.50
2023-08-08T10:30:49.704Z,0.45
2023-08-08T10:33:17.672Z,0.65
2023-08-08T10:35:52.216Z,0.57
2023-08-08T10:38:18.743Z,0.50
2023-08-08T10:40:45.208Z,0.60
2023-08-08T10:43:13.367Z,0.60
2023-08-08T10:45:44.187Z,0.30
2023-08-08T10:48:10.997Z,0.55
2023-08-08T10:50:43.648Z,0.50
2023-08-08T10:53:12.941Z,0.45
2023-08-08T10:58:05.856Z,0.47
2023-08-08T11:00:33.373Z,0.30
2023-08-08T11:03:00.564Z,0.55
2023-08-08T11:05:29.590Z,0.50
2023-08-08T11:07:56.188Z,0.60
2023-08-08T11:10:23.508Z,0.63
2023-08-08T11:13:00.862Z,0.47
2023-08-08T11:15:28.255Z,0.55
2023-08-08T11:17:56.170Z,0.60
2023-08-08T11:20:23.615Z,0.70
2023-08-08T11:22:54.607Z,0.70
2023-08-08T11:25:22.172Z,0.50
2023-08-08T11:27:52.624Z,0.60
2023-08-08T11:30:19.771Z,0.60
2023-08-08T11:33:15.460Z,0.60
2023-08-08T11:35:35.498Z,0.70
2023-08-08T11:38:02.005Z,0.60
2023-08-08T11:40:29.504Z,0.90
2023-08-08T11:42:57.746Z,0.60
2023-08-08T11:45:25.602Z,0.75
2023-08-08T11:47:54.711Z,0.60
2023-08-08T11:50:24.088Z,0.70
2023-08-08T11:55:17.928Z,0.50
2023-08-08T11:57:45.111Z,0.52
2023-08-08T12:00:15.012Z,0.70
2023-08-08T12:02:44.932Z,0.70
2023-08-08T12:05:13.590Z,0.60
2023-08-08T12:07:42.441Z,0.70
2023-08-08T12:10:21.434Z,0.70
2023-08-08T12:12:48.414Z,0.70
2023-08-08T12:15:16.766Z,0.70
2023-08-08T12:17:43.698Z,0.60
2023-08-08T12:20:11.114Z,0.70
2023-08-08T12:22:37.996Z,0.60
2023-08-08T12:25:04.889Z,0.82
2023-08-08T12:27:31.496Z,0.70
2023-08-08T12:29:58.178Z,0.65
2023-08-08T12:32:27.899Z,0.60
2023-08-08T12:34:54.428Z,0.63
2023-08-08T12:37:20.903Z,0.90
2023-08-08T12:39:47.366Z,0.65
2023-08-08T12:42:13.931Z,0.70
2023-08-08T12:44:40.470Z,0.90
2023-08-08T12:47:07.061Z,0.98
2023-08-08T12:49:33.582Z,0.63
2023-08-08T12:52:00.071Z,0.60
2023-08-08T12:54:27.035Z,0.73
2023-08-08T12:56:53.505Z,0.57
2023-08-08T12:59:20.006Z,0.80
2023-08-08T13:01:46.572Z,0.68
2023-08-08T13:04:19.598Z,0.52
2023-08-08T13:06:48.468Z,0.80
2023-08-08T13:09:15.806Z,0.60
2023-08-08T13:11:42.509Z,0.77
2023-08-08T13:14:09.105Z,0.70
2023-08-08T13:16:35.619Z,0.63
2023-08-08T13:19:02.769Z,1.35
2023-08-08T13:21:29.285Z,0.90
2023-08-08T13:23:55.782Z,0.93
2023-08-08T13:26:22.251Z,0.70
2023-08-08T13:28:50.712Z,0.70
2023-08-08T13:31:17.454Z,0.80
2023-08-08T13:33:44.023Z,0.65
2023-08-08T13:36:10.673Z,0.73
2023-08-08T13:38:37.210Z,0.70
2023-08-08T13:41:03.685Z,0.77
2023-08-08T13:43:31.402Z,0.50
2023-08-08T13:45:58.025Z,0.80
2023-08-08T13:48:24.615Z,0.63
2023-08-08T13:50:51.362Z,0.82
2023-08-08T13:53:17.804Z,0.77
2023-08-08T13:55:45.630Z,0.80
2023-08-08T13:58:12.178Z,0.80
2023-08-08T14:00:38.679Z,0.50
2023-08-08T14:03:06.141Z,0.70
2023-08-08T14:05:32.819Z,0.75
2023-08-08T14:07:59.324Z,0.75
2023-08-08T14:10:25.824Z,0.60
2023-08-08T14:12:52.374Z,0.70
2023-08-08T14:15:18.848Z,0.68
2023-08-08T14:17:46.522Z,0.65
2023-08-08T14:20:13.164Z,0.65
2023-08-08T14:22:39.689Z,0.70
2023-08-08T14:25:07.301Z,0.75
2023-08-08T14:27:33.985Z,0.57
2023-08-08T14:30:00.982Z,0.70
2023-08-08T14:32:27.634Z,0.65
2023-08-08T14:34:54.190Z,0.82
2023-08-08T14:37:21.210Z,0.63
2023-08-08T14:39:47.803Z,0.57
2023-08-08T14:42:14.393Z,0.80
2023-08-08T14:44:40.886Z,0.60
2023-08-08T14:47:07.418Z,0.70
2023-08-08T14:49:33.884Z,0.50
2023-08-08T14:52:00.560Z,0.57
2023-08-08T14:54:27.311Z,0.60
2023-08-08T14:56:53.814Z,0.60
2023-08-08T14:59:20.353Z,0.70
2023-08-08T15:01:47.603Z,0.65
2023-08-08T15:04:14.244Z,0.60
2023-08-08T15:06:41.577Z,0.70
2023-08-08T15:09:08.051Z,0.70
2023-08-08T15:11:34.523Z,0.70
2023-08-08T15:14:01.015Z,0.80
2023-08-08T15:16:27.511Z,0.63
2023-08-08T15:18:53.985Z,0.60
2023-08-08T15:21:21.147Z,0.65
2023-08-08T15:23:48.156Z,0.63
2023-08-08T15:26:17.092Z,0.70
2023-08-08T15:28:43.565Z,0.80
2023-08-08T15:31:10.114Z,0.80
2023-08-08T15:33:37.778Z,0.70
2023-08-08T15:36:04.459Z,0.60
2023-08-08T15:38:30.950Z,0.70
2023-08-08T15:40:57.558Z,0.50
2023-08-08T15:43:25.737Z,0.55
2023-08-08T15:45:52.938Z,0.60
2023-08-08T15:48:19.435Z,0.50
2023-08-08T15:50:45.952Z,0.68
2023-08-08T15:53:12.613Z,0.75
2023-08-08T15:55:39.146Z,0.70
2023-08-08T15:58:05.670Z,0.60
2023-08-08T16:00:32.187Z,0.70
2023-08-08T16:03:00.354Z,0.70
2023-08-08T16:05:28.995Z,0.80
2023-08-08T16:07:55.606Z,0.60
2023-08-08T16:10:23.299Z,0.60
2023-08-08T16:12:49.761Z,0.70
2023-08-08T16:15:17.914Z,0.50
2023-08-08T16:17:44.591Z,0.50
2023-08-08T16:20:11.416Z,0.60
2023-08-08T16:22:37.892Z,0.65
2023-08-08T16:25:04.859Z,0.85
2023-08-08T16:27:31.337Z,0.88
2023-08-08T16:29:57.816Z,0.80
2023-08-08T16:32:24.325Z,0.73
2023-08-08T16:34:50.871Z,0.80
2023-08-08T16:37:17.344Z,0.50
2023-08-08T16:39:43.822Z,0.77
2023-08-08T16:42:10.292Z,0.70
2023-08-08T16:44:36.883Z,0.73
2023-08-08T16:47:04.158Z,0.50
2023-08-08T16:49:30.690Z,0.60
2023-08-08T16:52:00.735Z,0.57
2023-08-08T16:54:27.642Z,0.80
2023-08-08T16:56:54.137Z,0.75
2023-08-08T16:59:20.621Z,0.80
2023-08-08T17:01:47.111Z,0.70
2023-08-08T17:04:15.999Z,0.70
2023-08-08T17:06:42.619Z,0.77
2023-08-08T17:09:09.190Z,0.70
2023-08-08T17:11:35.685Z,0.57
2023-08-08T17:14:02.208Z,0.60
2023-08-08T17:16:28.773Z,0.68
2023-08-08T17:18:55.276Z,0.65
2023-08-08T17:21:21.745Z,0.60
2023-08-08T17:23:48.251Z,0.60
2023-08-08T17:26:14.739Z,0.70
2023-08-08T17:28:41.257Z,0.68
2023-08-08T17:31:07.936Z,0.60
2023-08-08T17:33:34.501Z,0.70
2023-08-08T17:36:00.977Z,0.70
2023-08-08T17:38:28.111Z,0.80
2023-08-08T17:40:54.616Z,0.50
2023-08-08T17:43:21.102Z,0.70
2023-08-08T17:45:47.885Z,0.80
2023-08-08T17:48:14.454Z,0.80
2023-08-08T17:50:40.923Z,0.90
2023-08-08T17:53:07.410Z,0.70
2023-08-08T17:55:34.155Z,1.00
2023-08-08T17:58:00.695Z,0.90
2023-08-08T18:00:27.185Z,0.63
2023-08-08T18:02:53.868Z,0.90
2023-08-08T18:05:20.417Z,0.80
2023-08-08T18:07:46.890Z,1.00
2023-08-08T18:10:13.369Z,0.80
2023-08-08T18:12:39.981Z,1.02
2023-08-08T18:15:07.305Z,1.02
2023-08-08T18:17:33.823Z,0.90
2023-08-08T18:20:00.688Z,0.80
2023-08-08T18:22:27.665Z,1.00
2023-08-08T18:24:54.145Z,0.80
2023-08-08T18:27:21.739Z,1.00
2023-08-08T18:29:48.240Z,0.93
2023-08-08T18:32:14.797Z,0.90
2023-08-08T18:34:42.412Z,0.88
2023-08-08T18:37:09.369Z,0.80
2023-08-08T18:39:35.896Z,1.00
2023-08-08T18:42:02.892Z,1.23
2023-08-08T18:44:29.626Z,0.88
2023-08-08T18:46:56.090Z,1.13
2023-08-08T18:49:22.585Z,1.00
2023-08-08T18:51:49.072Z,0.90
2023-08-08T18:54:15.586Z,1.10
2023-08-08T18:56:42.159Z,0.90
2023-08-08T18:59:08.611Z,1.00
2023-08-08T19:01:35.130Z,0.90
2023-08-08T19:04:02.374Z,0.90
2023-08-08T19:06:28.912Z,1.05
2023-08-08T19:08:55.508Z,1.05
2023-08-08T19:11:21.961Z,1.00
2023-08-08T19:13:48.424Z,1.00
2023-08-08T19:16:14.952Z,1.05
2023-08-08T19:18:41.522Z,0.80
2023-08-08T19:21:08.077Z,1.05
2023-08-08T19:23:35.359Z,0.90
2023-08-08T19:26:02.107Z,1.30
2023-08-08T19:28:28.765Z,0.82
2023-08-08T19:30:55.246Z,0.82
2023-08-08T19:33:21.733Z,0.80
2023-08-08T19:35:48.291Z,1.00
2023-08-08T19:38:15.038Z,0.98
2023-08-08T19:40:41.530Z,1.15
2023-08-08T19:43:08.013Z,1.02
2023-08-08T19:45:34.574Z,0.98
2023-08-08T19:48:01.331Z,0.90
2023-08-08T19:50:27.931Z,0.80
2023-08-08T19:52:54.638Z,1.23
2023-08-08T19:55:21.148Z,0.93
2023-08-08T19:57:47.660Z,0.82
2023-08-08T20:00:15.486Z,0.98
2023-08-08T20:02:43.886Z,0.93
2023-08-08T20:05:11.774Z,1.10
2023-08-08T20:07:38.327Z,0.90
2023-08-08T20:10:05.859Z,0.90
2023-08-08T20:12:32.381Z,1.30
2023-08-08T20:14:58.899Z,1.00
2023-08-08T20:17:25.457Z,0.90
2023-08-08T20:19:52.327Z,0.80
2023-08-08T20:22:18.871Z,0.90
2023-08-08T20:24:45.406Z,0.98
2023-08-08T20:27:11.889Z,0.85
2023-08-08T20:29:38.398Z,0.90
2023-08-08T20:32:05.034Z,1.13
2023-08-08T20:34:31.799Z,1.00
2023-08-08T20:36:59.317Z,0.80
2023-08-08T20:39:26.135Z,0.80
2023-08-08T20:41:53.939Z,0.88
2023-08-08T20:44:20.428Z,0.80
2023-08-08T20:46:46.913Z,0.80
2023-08-08T20:49:13.375Z,1.00
2023-08-08T20:51:40.624Z,1.10
2023-08-08T20:54:07.124Z,0.80
2023-08-08T20:56:33.655Z,0.75
2023-08-08T20:59:00.155Z,0.82
2023-08-08T21:01:26.728Z,1.00
2023-08-08T21:03:53.233Z,0.90
2023-08-08T21:06:19.773Z,0.90
2023-08-08T21:08:46.329Z,0.90
2023-08-08T21:11:12.877Z,0.90
2023-08-08T21:13:39.416Z,1.00
2023-08-08T21:16:06.196Z,1.10
2023-08-08T21:18:32.766Z,1.02
2023-08-08T21:20:59.282Z,1.00
2023-08-08T21:23:25.834Z,1.20
2023-08-08T21:25:52.343Z,1.00
2023-08-08T21:28:18.863Z,0.80
2023-08-08T21:30:45.536Z,0.75
2023-08-08T21:33:12.097Z,0.93
2023-08-08T21:35:38.590Z,1.10
2023-08-08T21:38:07.651Z,1.10
2023-08-08T21:40:34.127Z,0.80
2023-08-08T21:43:00.599Z,1.10
2023-08-08T21:45:27.065Z,1.00
2023-08-08T21:47:53.576Z,0.80
2023-08-08T21:50:20.132Z,0.90
2023-08-08T21:52:46.596Z,0.90
2023-08-08T21:55:13.123Z,1.00
2023-08-08T21:57:39.629Z,0.90
2023-08-08T22:00:06.614Z,1.02
2023-08-08T22:02:33.170Z,0.93
2023-08-08T22:04:59.718Z,0.95
2023-08-08T22:07:26.234Z,0.90
2023-08-08T22:09:52.863Z,0.80
2023-08-08T22:12:19.376Z,0.93
2023-08-08T22:14:45.909Z,0.95
2023-08-08T22:17:12.394Z,0.80
2023-08-08T22:19:39.162Z,0.80
2023-08-08T22:22:05.628Z,1.00
2023-08-08T22:24:34.037Z,1.00
2023-08-08T22:27:01.205Z,1.10
2023-08-08T22:29:28.056Z,1.08
2023-08-08T22:31:54.588Z,1.05
2023-08-08T22:34:21.051Z,1.00
2023-08-08T22:36:47.546Z,0.90
2023-08-08T22:39:14.043Z,1.05
2023-08-08T22:41:41.082Z,1.00
2023-08-08T22:44:07.596Z,1.15
2023-08-08T22:46:34.164Z,0.98
2023-08-08T22:49:00.712Z,1.08
2023-08-08T22:51:27.265Z,0.90
2023-08-08T22:53:53.753Z,1.02
2023-08-08T22:56:20.557Z,0.90
2023-08-08T22:58:48.330Z,1.10
2023-08-08T23:01:14.916Z,1.02
2023-08-08T23:03:41.644Z,1.15
2023-08-08T23:06:08.246Z,1.00
2023-08-08T23:08:34.737Z,1.10
2023-08-08T23:11:01.650Z,1.00
2023-08-08T23:13:28.239Z,0.98
2023-08-08T23:15:54.803Z,1.00
2023-08-08T23:18:21.355Z,1.10
2023-08-08T23:20:49.911Z,0.98
2023-08-08T23:23:16.632Z,1.10
2023-08-08T23:25:43.269Z,1.08
2023-08-08T23:28:09.792Z,0.95
2023-08-08T23:30:36.521Z,0.80
2023-08-08T23:33:03.178Z,0.98
2023-08-08T23:35:29.768Z,0.95
2023-08-08T23:37:56.360Z,1.10
2023-08-08T23:40:23.567Z,0.95
2023-08-08T23:42:50.065Z,1.10
2023-08-08T23:45:16.580Z,0.90
2023-08-08T23:47:43.095Z,0.85
2023-08-08T23:50:09.885Z,1.00
2023-08-08T23:52:36.520Z,0.90
2023-08-08T23:55:03.499Z,1.05
2023-08-08T23:57:30.062Z,1.00
2023-08-08T23:59:56.557Z,1.00
